sensor_id;sensor_type;location;lat;lon;timestamp;P1;durP1;ratioP1;P2;durP2;ratioP2
67348;SDS011;54234;50.320;3.474;2023-03-23T00:02:29;4.88;;;1.65;;
67348;SDS011;54234;50.320;3.474;2023-03-23T00:05:00;4.15;;;1.45;;
67348;SDS011;54234;50.320;3.474;2023-03-23T00:07:29;3.17;;;1.30;;
67348;SDS011;54234;50.320;3.474;2023-03-23T00:09:55;5.20;;;1.93;;
67348;SDS011;54234;50.320;3.474;2023-03-23T00:12:24;5.15;;;1.80;;
67348;SDS011;54234;50.320;3.474;2023-03-23T00:15:02;4.57;;;1.75;;
67348;SDS011;54234;50.320;3.474;2023-03-23T00:17:29;2.72;;;1.10;;
67348;SDS011;54234;50.320;3.474;2023-03-23T00:19:55;5.70;;;1.98;;
67348;SDS011;54234;50.320;3.474;2023-03-23T00:22:20;3.42;;;1.60;;
67348;SDS011;54234;50.320;3.474;2023-03-23T00:24:50;5.33;;;1.80;;
67348;SDS011;54234;50.320;3.474;2023-03-23T00:27:16;2.53;;;1.17;;
67348;SDS011;54234;50.320;3.474;2023-03-23T00:29:42;5.25;;;1.90;;
67348;SDS011;54234;50.320;3.474;2023-03-23T00:32:09;4.18;;;1.70;;
67348;SDS011;54234;50.320;3.474;2023-03-23T00:34:37;4.93;;;1.83;;
67348;SDS011;54234;50.320;3.474;2023-03-23T00:37:03;2.50;;;1.17;;
67348;SDS011;54234;50.320;3.474;2023-03-23T00:39:29;3.37;;;1.60;;
67348;SDS011;54234;50.320;3.474;2023-03-23T00:41:54;4.07;;;1.67;;
67348;SDS011;54234;50.320;3.474;2023-03-23T00:44:25;5.07;;;1.80;;
67348;SDS011;54234;50.320;3.474;2023-03-23T00:46:55;3.45;;;1.40;;
67348;SDS011;54234;50.320;3.474;2023-03-23T00:49:25;4.50;;;1.52;;
67348;SDS011;54234;50.320;3.474;2023-03-23T00:51:55;4.87;;;1.90;;
67348;SDS011;54234;50.320;3.474;2023-03-23T00:54:22;5.28;;;1.85;;
67348;SDS011;54234;50.320;3.474;2023-03-23T00:56:48;5.10;;;1.88;;
67348;SDS011;54234;50.320;3.474;2023-03-23T00:59:14;1.45;;;0.85;;
67348;SDS011;54234;50.320;3.474;2023-03-23T01:01:39;3.40;;;1.67;;
67348;SDS011;54234;50.320;3.474;2023-03-23T01:04:05;2.78;;;1.40;;
67348;SDS011;54234;50.320;3.474;2023-03-23T01:06:32;3.58;;;1.60;;
67348;SDS011;54234;50.320;3.474;2023-03-23T01:09:00;2.00;;;1.00;;
67348;SDS011;54234;50.320;3.474;2023-03-23T01:11:27;4.78;;;1.80;;
67348;SDS011;54234;50.320;3.474;2023-03-23T01:13:53;5.20;;;1.88;;
67348;SDS011;54234;50.320;3.474;2023-03-23T01:16:19;5.33;;;1.80;;
67348;SDS011;54234;50.320;3.474;2023-03-23T01:18:44;2.80;;;1.10;;
67348;SDS011;54234;50.320;3.474;2023-03-23T01:21:11;5.50;;;1.90;;
67348;SDS011;54234;50.320;3.474;2023-03-23T01:23:38;5.30;;;1.90;;
67348;SDS011;54234;50.320;3.474;2023-03-23T01:26:08;5.95;;;1.98;;
67348;SDS011;54234;50.320;3.474;2023-03-23T01:28:36;2.33;;;1.07;;
67348;SDS011;54234;50.320;3.474;2023-03-23T01:31:05;6.37;;;2.00;;
67348;SDS011;54234;50.320;3.474;2023-03-23T01:33:32;6.45;;;1.95;;
67348;SDS011;54234;50.320;3.474;2023-03-23T01:36:01;5.57;;;1.70;;
67348;SDS011;54234;50.320;3.474;2023-03-23T01:38:28;5.32;;;1.67;;
67348;SDS011;54234;50.320;3.474;2023-03-23T01:40:53;4.77;;;1.50;;
67348;SDS011;54234;50.320;3.474;2023-03-23T01:43:18;6.00;;;2.03;;
67348;SDS011;54234;50.320;3.474;2023-03-23T01:45:44;4.90;;;1.80;;
67348;SDS011;54234;50.320;3.474;2023-03-23T01:53:22;4.55;;;1.80;;
67348;SDS011;54234;50.320;3.474;2023-03-23T01:55:51;4.25;;;1.65;;
67348;SDS011;54234;50.320;3.474;2023-03-23T01:58:22;3.50;;;1.57;;
67348;SDS011;54234;50.320;3.474;2023-03-23T02:00:52;2.37;;;1.07;;
67348;SDS011;54234;50.320;3.474;2023-03-23T02:03:18;4.38;;;1.70;;
67348;SDS011;54234;50.320;3.474;2023-03-23T02:05:45;3.40;;;1.55;;
67348;SDS011;54234;50.320;3.474;2023-03-23T02:08:10;4.65;;;1.77;;
67348;SDS011;54234;50.320;3.474;2023-03-23T02:10:38;2.63;;;1.30;;
67348;SDS011;54234;50.320;3.474;2023-03-23T02:13:04;2.47;;;1.20;;
67348;SDS011;54234;50.320;3.474;2023-03-23T02:15:42;3.10;;;1.50;;
67348;SDS011;54234;50.320;3.474;2023-03-23T02:26:20;3.42;;;1.60;;
67348;SDS011;54234;50.320;3.474;2023-03-23T02:34:17;2.78;;;1.15;;
67348;SDS011;54234;50.320;3.474;2023-03-23T02:39:19;5.57;;;2.00;;
67348;SDS011;54234;50.320;3.474;2023-03-23T02:41:54;4.45;;;1.73;;
67348;SDS011;54234;50.320;3.474;2023-03-23T02:44:23;4.50;;;1.70;;
67348;SDS011;54234;50.320;3.474;2023-03-23T02:46:50;3.20;;;1.40;;
67348;SDS011;54234;50.320;3.474;2023-03-23T02:49:15;4.80;;;1.90;;
67348;SDS011;54234;50.320;3.474;2023-03-23T02:51:43;5.37;;;1.93;;
67348;SDS011;54234;50.320;3.474;2023-03-23T02:54:10;4.10;;;1.83;;
67348;SDS011;54234;50.320;3.474;2023-03-23T02:56:36;2.38;;;1.10;;
67348;SDS011;54234;50.320;3.474;2023-03-23T02:59:02;5.25;;;1.95;;
67348;SDS011;54234;50.320;3.474;2023-03-23T03:04:01;4.53;;;1.80;;
67348;SDS011;54234;50.320;3.474;2023-03-23T03:09:04;4.45;;;1.70;;
67348;SDS011;54234;50.320;3.474;2023-03-23T03:11:34;5.22;;;1.80;;
67348;SDS011;54234;50.320;3.474;2023-03-23T03:14:08;5.03;;;1.85;;
67348;SDS011;54234;50.320;3.474;2023-03-23T03:19:06;3.42;;;1.55;;
67348;SDS011;54234;50.320;3.474;2023-03-23T03:21:37;5.50;;;1.95;;
67348;SDS011;54234;50.320;3.474;2023-03-23T03:24:04;5.80;;;1.98;;
67348;SDS011;54234;50.320;3.474;2023-03-23T03:26:31;3.80;;;1.75;;
67348;SDS011;54234;50.320;3.474;2023-03-23T03:28:59;1.83;;;0.93;;
67348;SDS011;54234;50.320;3.474;2023-03-23T03:31:28;3.20;;;1.50;;
67348;SDS011;54234;50.320;3.474;2023-03-23T03:33:56;5.25;;;1.80;;
67348;SDS011;54234;50.320;3.474;2023-03-23T03:36:23;5.05;;;1.83;;
67348;SDS011;54234;50.320;3.474;2023-03-23T03:38:51;2.42;;;1.10;;
67348;SDS011;54234;50.320;3.474;2023-03-23T03:41:17;5.15;;;1.85;;
67348;SDS011;54234;50.320;3.474;2023-03-23T03:43:43;3.85;;;1.75;;
67348;SDS011;54234;50.320;3.474;2023-03-23T03:46:09;3.37;;;1.50;;
67348;SDS011;54234;50.320;3.474;2023-03-23T03:48:34;3.20;;;1.30;;
67348;SDS011;54234;50.320;3.474;2023-03-23T03:51:00;5.53;;;1.90;;
67348;SDS011;54234;50.320;3.474;2023-03-23T03:53:26;4.60;;;1.70;;
67348;SDS011;54234;50.320;3.474;2023-03-23T03:55:52;5.95;;;2.00;;
67348;SDS011;54234;50.320;3.474;2023-03-23T03:58:21;4.25;;;1.48;;
67348;SDS011;54234;50.320;3.474;2023-03-23T04:00:47;5.75;;;1.92;;
67348;SDS011;54234;50.320;3.474;2023-03-23T04:03:13;4.95;;;1.90;;
67348;SDS011;54234;50.320;3.474;2023-03-23T04:05:38;4.82;;;1.88;;
67348;SDS011;54234;50.320;3.474;2023-03-23T04:08:04;5.20;;;1.87;;
67348;SDS011;54234;50.320;3.474;2023-03-23T04:10:30;3.07;;;1.23;;
67348;SDS011;54234;50.320;3.474;2023-03-23T04:12:56;6.30;;;2.00;;
67348;SDS011;54234;50.320;3.474;2023-03-23T04:15:22;4.45;;;1.75;;
67348;SDS011;54234;50.320;3.474;2023-03-23T04:17:47;4.45;;;1.80;;
67348;SDS011;54234;50.320;3.474;2023-03-23T04:20:13;3.03;;;1.13;;
67348;SDS011;54234;50.320;3.474;2023-03-23T04:22:42;6.53;;;2.10;;
67348;SDS011;54234;50.320;3.474;2023-03-23T04:25:14;6.40;;;2.05;;
67348;SDS011;54234;50.320;3.474;2023-03-23T04:27:40;4.75;;;1.85;;
67348;SDS011;54234;50.320;3.474;2023-03-23T04:30:08;5.45;;;1.85;;
67348;SDS011;54234;50.320;3.474;2023-03-23T04:32:34;3.70;;;1.38;;
67348;SDS011;54234;50.320;3.474;2023-03-23T04:35:00;7.07;;;2.10;;
67348;SDS011;54234;50.320;3.474;2023-03-23T04:37:26;4.53;;;1.80;;
67348;SDS011;54234;50.320;3.474;2023-03-23T04:39:56;6.63;;;2.03;;
67348;SDS011;54234;50.320;3.474;2023-03-23T04:42:36;3.00;;;1.20;;
67348;SDS011;54234;50.320;3.474;2023-03-23T04:45:02;6.55;;;2.13;;
67348;SDS011;54234;50.320;3.474;2023-03-23T04:47:31;4.20;;;1.70;;
67348;SDS011;54234;50.320;3.474;2023-03-23T04:49:59;6.82;;;2.17;;
67348;SDS011;54234;50.320;3.474;2023-03-23T04:52:25;4.03;;;1.40;;
67348;SDS011;54234;50.320;3.474;2023-03-23T04:54:51;3.73;;;1.63;;
67348;SDS011;54234;50.320;3.474;2023-03-23T04:57:16;4.70;;;1.90;;
67348;SDS011;54234;50.320;3.474;2023-03-23T04:59:42;5.80;;;2.00;;
67348;SDS011;54234;50.320;3.474;2023-03-23T05:02:08;3.15;;;1.17;;
67348;SDS011;54234;50.320;3.474;2023-03-23T05:04:34;6.93;;;2.22;;
67348;SDS011;54234;50.320;3.474;2023-03-23T05:06:59;7.10;;;2.10;;
67348;SDS011;54234;50.320;3.474;2023-03-23T05:09:25;3.42;;;1.60;;
67348;SDS011;54234;50.320;3.474;2023-03-23T05:11:50;3.47;;;1.60;;
67348;SDS011;54234;50.320;3.474;2023-03-23T05:14:16;4.23;;;1.93;;
67348;SDS011;54234;50.320;3.474;2023-03-23T05:16:41;4.17;;;1.97;;
67348;SDS011;54234;50.320;3.474;2023-03-23T05:19:06;5.40;;;2.00;;
67348;SDS011;54234;50.320;3.474;2023-03-23T05:21:33;3.38;;;1.35;;
67348;SDS011;54234;50.320;3.474;2023-03-23T05:23:59;5.68;;;2.20;;
67348;SDS011;54234;50.320;3.474;2023-03-23T05:26:25;6.43;;;2.27;;
67348;SDS011;54234;50.320;3.474;2023-03-23T05:28:54;4.55;;;1.80;;
67348;SDS011;54234;50.320;3.474;2023-03-23T05:31:20;2.47;;;1.00;;
67348;SDS011;54234;50.320;3.474;2023-03-23T05:33:46;5.23;;;1.83;;
67348;SDS011;54234;50.320;3.474;2023-03-23T05:36:11;4.82;;;1.88;;
67348;SDS011;54234;50.320;3.474;2023-03-23T05:38:38;6.88;;;2.30;;
67348;SDS011;54234;50.320;3.474;2023-03-23T05:41:05;4.13;;;1.50;;
67348;SDS011;54234;50.320;3.474;2023-03-23T05:43:31;4.32;;;1.90;;
67348;SDS011;54234;50.320;3.474;2023-03-23T05:45:56;3.67;;;1.60;;
67348;SDS011;54234;50.320;3.474;2023-03-23T05:48:22;4.53;;;1.90;;
67348;SDS011;54234;50.320;3.474;2023-03-23T05:50:48;3.73;;;1.37;;
67348;SDS011;54234;50.320;3.474;2023-03-23T05:53:13;5.13;;;1.80;;
67348;SDS011;54234;50.320;3.474;2023-03-23T05:55:38;6.37;;;2.13;;
67348;SDS011;54234;50.320;3.474;2023-03-23T05:58:04;5.83;;;2.10;;
67348;SDS011;54234;50.320;3.474;2023-03-23T06:00:29;4.17;;;1.90;;
67348;SDS011;54234;50.320;3.474;2023-03-23T06:02:55;2.08;;;0.98;;
67348;SDS011;54234;50.320;3.474;2023-03-23T06:05:21;3.90;;;1.73;;
67348;SDS011;54234;50.320;3.474;2023-03-23T06:07:47;3.37;;;1.70;;
67348;SDS011;54234;50.320;3.474;2023-03-23T06:10:12;5.85;;;2.10;;
67348;SDS011;54234;50.320;3.474;2023-03-23T06:12:38;3.83;;;1.40;;
67348;SDS011;54234;50.320;3.474;2023-03-23T06:15:05;5.40;;;1.85;;
67348;SDS011;54234;50.320;3.474;2023-03-23T06:17:32;5.68;;;1.95;;
67348;SDS011;54234;50.320;3.474;2023-03-23T06:19:58;5.30;;;1.90;;
67348;SDS011;54234;50.320;3.474;2023-03-23T06:22:23;4.30;;;1.70;;
67348;SDS011;54234;50.320;3.474;2023-03-23T06:24:49;4.43;;;1.53;;
67348;SDS011;54234;50.320;3.474;2023-03-23T06:27:14;4.80;;;1.77;;
67348;SDS011;54234;50.320;3.474;2023-03-23T06:29:41;6.43;;;2.17;;
67348;SDS011;54234;50.320;3.474;2023-03-23T06:32:06;5.93;;;2.03;;
67348;SDS011;54234;50.320;3.474;2023-03-23T06:34:32;2.58;;;1.00;;
67348;SDS011;54234;50.320;3.474;2023-03-23T06:36:57;4.77;;;1.87;;
67348;SDS011;54234;50.320;3.474;2023-03-23T06:39:23;5.47;;;1.90;;
67348;SDS011;54234;50.320;3.474;2023-03-23T06:41:49;5.30;;;1.88;;
67348;SDS011;54234;50.320;3.474;2023-03-23T06:44:14;3.90;;;1.40;;
67348;SDS011;54234;50.320;3.474;2023-03-23T06:46:40;6.07;;;2.00;;
67348;SDS011;54234;50.320;3.474;2023-03-23T06:49:06;4.68;;;1.83;;
67348;SDS011;54234;50.320;3.474;2023-03-23T06:51:32;4.38;;;1.77;;
67348;SDS011;54234;50.320;3.474;2023-03-23T06:53:58;3.43;;;1.50;;
67348;SDS011;54234;50.320;3.474;2023-03-23T06:56:24;4.30;;;1.63;;
67348;SDS011;54234;50.320;3.474;2023-03-23T06:58:49;5.72;;;1.92;;
67348;SDS011;54234;50.320;3.474;2023-03-23T07:01:14;5.45;;;1.90;;
67348;SDS011;54234;50.320;3.474;2023-03-23T07:03:41;5.13;;;1.83;;
67348;SDS011;54234;50.320;3.474;2023-03-23T07:06:07;5.85;;;2.00;;
67348;SDS011;54234;50.320;3.474;2023-03-23T07:08:33;4.00;;;1.70;;
67348;SDS011;54234;50.320;3.474;2023-03-23T07:10:58;5.70;;;2.00;;
67348;SDS011;54234;50.320;3.474;2023-03-23T07:13:23;3.07;;;1.20;;
67348;SDS011;54234;50.320;3.474;2023-03-23T07:15:49;5.13;;;1.87;;
67348;SDS011;54234;50.320;3.474;2023-03-23T07:18:15;6.63;;;2.13;;
67348;SDS011;54234;50.320;3.474;2023-03-23T07:20:41;4.90;;;2.00;;
67348;SDS011;54234;50.320;3.474;2023-03-23T07:23:06;5.27;;;1.73;;
67348;SDS011;54234;50.320;3.474;2023-03-23T07:25:32;4.30;;;1.70;;
67348;SDS011;54234;50.320;3.474;2023-03-23T07:28:02;6.25;;;2.13;;
67348;SDS011;54234;50.320;3.474;2023-03-23T07:30:27;2.95;;;1.25;;
67348;SDS011;54234;50.320;3.474;2023-03-23T07:32:54;4.88;;;1.80;;
67348;SDS011;54234;50.320;3.474;2023-03-23T07:35:20;5.25;;;2.17;;
67348;SDS011;54234;50.320;3.474;2023-03-23T07:37:46;6.63;;;2.25;;
67348;SDS011;54234;50.320;3.474;2023-03-23T07:40:13;1.88;;;0.98;;
67348;SDS011;54234;50.320;3.474;2023-03-23T07:42:43;4.20;;;1.80;;
67348;SDS011;54234;50.320;3.474;2023-03-23T07:45:10;4.65;;;1.90;;
67348;SDS011;54234;50.320;3.474;2023-03-23T07:47:36;3.40;;;1.60;;
67348;SDS011;54234;50.320;3.474;2023-03-23T07:50:02;1.00;;;0.73;;
67348;SDS011;54234;50.320;3.474;2023-03-23T07:52:27;4.37;;;2.20;;
67348;SDS011;54234;50.320;3.474;2023-03-23T07:54:53;3.33;;;1.60;;
67348;SDS011;54234;50.320;3.474;2023-03-23T07:57:18;3.30;;;1.80;;
67348;SDS011;54234;50.320;3.474;2023-03-23T07:59:43;0.97;;;0.70;;
67348;SDS011;54234;50.320;3.474;2023-03-23T08:02:09;4.57;;;1.80;;
67348;SDS011;54234;50.320;3.474;2023-03-23T08:04:35;6.05;;;2.05;;
67348;SDS011;54234;50.320;3.474;2023-03-23T08:07:02;4.97;;;1.90;;
67348;SDS011;54234;50.320;3.474;2023-03-23T08:09:29;3.13;;;1.17;;
67348;SDS011;54234;50.320;3.474;2023-03-23T08:11:54;3.97;;;1.67;;
67348;SDS011;54234;50.320;3.474;2023-03-23T08:14:19;4.43;;;1.83;;
67348;SDS011;54234;50.320;3.474;2023-03-23T08:16:45;4.97;;;2.03;;
67348;SDS011;54234;50.320;3.474;2023-03-23T08:19:10;4.55;;;1.52;;
67348;SDS011;54234;50.320;3.474;2023-03-23T08:21:35;6.73;;;2.00;;
67348;SDS011;54234;50.320;3.474;2023-03-23T08:24:01;4.87;;;1.80;;
67348;SDS011;54234;50.320;3.474;2023-03-23T08:26:27;7.00;;;2.20;;
67348;SDS011;54234;50.320;3.474;2023-03-23T08:28:52;3.33;;;1.48;;
67348;SDS011;54234;50.320;3.474;2023-03-23T08:31:18;3.88;;;1.70;;
67348;SDS011;54234;50.320;3.474;2023-03-23T08:33:43;4.63;;;1.90;;
67348;SDS011;54234;50.320;3.474;2023-03-23T08:36:09;6.10;;;1.97;;
67348;SDS011;54234;50.320;3.474;2023-03-23T08:38:34;4.13;;;1.38;;
67348;SDS011;54234;50.320;3.474;2023-03-23T08:41:01;6.25;;;1.98;;
67348;SDS011;54234;50.320;3.474;2023-03-23T08:43:28;7.10;;;2.30;;
67348;SDS011;54234;50.320;3.474;2023-03-23T08:45:54;6.03;;;1.97;;
67348;SDS011;54234;50.320;3.474;2023-03-23T08:48:20;2.60;;;1.20;;
67348;SDS011;54234;50.320;3.474;2023-03-23T08:50:45;5.97;;;2.38;;
67348;SDS011;54234;50.320;3.474;2023-03-23T08:53:11;8.80;;;2.60;;
67348;SDS011;54234;50.320;3.474;2023-03-23T08:55:36;9.30;;;2.80;;
67348;SDS011;54234;50.320;3.474;2023-03-23T08:58:02;6.97;;;2.33;;
67348;SDS011;54234;50.320;3.474;2023-03-23T09:00:28;7.90;;;2.60;;
67348;SDS011;54234;50.320;3.474;2023-03-23T09:02:53;10.57;;;2.90;;
67348;SDS011;54234;50.320;3.474;2023-03-23T09:05:21;5.83;;;2.20;;
67348;SDS011;54234;50.320;3.474;2023-03-23T09:07:50;4.32;;;1.58;;
67348;SDS011;54234;50.320;3.474;2023-03-23T09:10:16;5.72;;;2.03;;
67348;SDS011;54234;50.320;3.474;2023-03-23T09:12:42;5.65;;;1.90;;
67348;SDS011;54234;50.320;3.474;2023-03-23T09:15:09;7.10;;;2.20;;
67348;SDS011;54234;50.320;3.474;2023-03-23T09:17:37;2.03;;;0.98;;
67348;SDS011;54234;50.320;3.474;2023-03-23T09:20:06;5.70;;;1.90;;
67348;SDS011;54234;50.320;3.474;2023-03-23T09:22:37;6.40;;;2.05;;
67348;SDS011;54234;50.320;3.474;2023-03-23T09:25:03;6.38;;;2.08;;
67348;SDS011;54234;50.320;3.474;2023-03-23T09:27:29;2.83;;;1.08;;
67348;SDS011;54234;50.320;3.474;2023-03-23T09:29:54;6.40;;;2.17;;
67348;SDS011;54234;50.320;3.474;2023-03-23T09:32:20;6.80;;;2.13;;
67348;SDS011;54234;50.320;3.474;2023-03-23T09:34:47;9.52;;;2.78;;
67348;SDS011;54234;50.320;3.474;2023-03-23T09:37:12;8.30;;;2.47;;
67348;SDS011;54234;50.320;3.474;2023-03-23T09:39:39;6.57;;;2.50;;
67348;SDS011;54234;50.320;3.474;2023-03-23T09:47:42;5.82;;;2.28;;
67348;SDS011;54234;50.320;3.474;2023-03-23T09:50:11;2.10;;;1.00;;
67348;SDS011;54234;50.320;3.474;2023-03-23T09:52:40;6.28;;;2.05;;
67348;SDS011;54234;50.320;3.474;2023-03-23T09:55:11;3.25;;;1.63;;
67348;SDS011;54234;50.320;3.474;2023-03-23T09:57:57;3.20;;;1.60;;
67348;SDS011;54234;50.320;3.474;2023-03-23T10:00:26;4.97;;;1.90;;
67348;SDS011;54234;50.320;3.474;2023-03-23T10:05:32;5.07;;;1.90;;
67348;SDS011;54234;50.320;3.474;2023-03-23T10:08:00;6.40;;;1.95;;
67348;SDS011;54234;50.320;3.474;2023-03-23T10:10:50;7.30;;;2.15;;
67348;SDS011;54234;50.320;3.474;2023-03-23T10:13:18;7.70;;;2.28;;
67348;SDS011;54234;50.320;3.474;2023-03-23T10:15:52;1.15;;;0.65;;
67348;SDS011;54234;50.320;3.474;2023-03-23T10:18:22;7.20;;;2.17;;
67348;SDS011;54234;50.320;3.474;2023-03-23T10:21:00;6.78;;;2.05;;
67348;SDS011;54234;50.320;3.474;2023-03-23T10:23:35;7.80;;;2.30;;
67348;SDS011;54234;50.320;3.474;2023-03-23T10:28:50;3.28;;;1.20;;
67348;SDS011;54234;50.320;3.474;2023-03-23T10:31:26;6.90;;;2.10;;
67348;SDS011;54234;50.320;3.474;2023-03-23T10:33:56;6.32;;;2.05;;
67348;SDS011;54234;50.320;3.474;2023-03-23T10:39:02;4.77;;;1.53;;
67348;SDS011;54234;50.320;3.474;2023-03-23T10:41:32;8.07;;;2.45;;
67348;SDS011;54234;50.320;3.474;2023-03-23T10:43:58;6.80;;;2.20;;
67348;SDS011;54234;50.320;3.474;2023-03-23T10:46:55;6.47;;;2.22;;
67348;SDS011;54234;50.320;3.474;2023-03-23T10:49:24;6.35;;;1.95;;
67348;SDS011;54234;50.320;3.474;2023-03-23T10:51:56;5.55;;;1.83;;
67348;SDS011;54234;50.320;3.474;2023-03-23T10:54:27;6.40;;;2.10;;
67348;SDS011;54234;50.320;3.474;2023-03-23T10:57:00;5.85;;;2.10;;
67348;SDS011;54234;50.320;3.474;2023-03-23T10:59:29;5.80;;;2.07;;
67348;SDS011;54234;50.320;3.474;2023-03-23T11:01:58;5.40;;;1.90;;
67348;SDS011;54234;50.320;3.474;2023-03-23T11:04:27;4.10;;;1.40;;
67348;SDS011;54234;50.320;3.474;2023-03-23T11:06:54;7.33;;;2.27;;
67348;SDS011;54234;50.320;3.474;2023-03-23T11:09:34;6.85;;;2.13;;
67348;SDS011;54234;50.320;3.474;2023-03-23T11:12:01;6.70;;;2.10;;
67348;SDS011;54234;50.320;3.474;2023-03-23T11:16:57;3.40;;;1.23;;
67348;SDS011;54234;50.320;3.474;2023-03-23T11:19:29;7.05;;;2.20;;
67348;SDS011;54234;50.320;3.474;2023-03-23T11:24:31;6.95;;;2.15;;
67348;SDS011;54234;50.320;3.474;2023-03-23T11:26:58;6.35;;;2.05;;
67348;SDS011;54234;50.320;3.474;2023-03-23T11:29:24;2.88;;;1.15;;
67348;SDS011;54234;50.320;3.474;2023-03-23T11:34:30;5.97;;;2.03;;
67348;SDS011;54234;50.320;3.474;2023-03-23T11:37:00;6.55;;;2.10;;
67348;SDS011;54234;50.320;3.474;2023-03-23T11:39:29;1.63;;;0.77;;
67348;SDS011;54234;50.320;3.474;2023-03-23T11:42:00;6.43;;;2.15;;
67348;SDS011;54234;50.320;3.474;2023-03-23T11:44:33;6.30;;;2.10;;
67348;SDS011;54234;50.320;3.474;2023-03-23T11:47:04;5.90;;;2.20;;
67348;SDS011;54234;50.320;3.474;2023-03-23T11:49:38;6.90;;;2.50;;
67348;SDS011;54234;50.320;3.474;2023-03-23T11:52:25;6.40;;;2.23;;
67348;SDS011;54234;50.320;3.474;2023-03-23T11:55:01;6.93;;;2.17;;
67348;SDS011;54234;50.320;3.474;2023-03-23T11:57:30;5.60;;;1.80;;
67348;SDS011;54234;50.320;3.474;2023-03-23T11:59:55;5.72;;;1.73;;
67348;SDS011;54234;50.320;3.474;2023-03-23T12:02:43;8.70;;;2.53;;
67348;SDS011;54234;50.320;3.474;2023-03-23T12:05:37;5.45;;;2.10;;
67348;SDS011;54234;50.320;3.474;2023-03-23T12:08:44;7.05;;;2.33;;
67348;SDS011;54234;50.320;3.474;2023-03-23T12:16:53;7.68;;;2.53;;
67348;SDS011;54234;50.320;3.474;2023-03-23T12:19:33;5.30;;;2.03;;
67348;SDS011;54234;50.320;3.474;2023-03-23T12:22:08;7.60;;;2.42;;
67348;SDS011;54234;50.320;3.474;2023-03-23T12:27:31;7.88;;;2.30;;
67348;SDS011;54234;50.320;3.474;2023-03-23T12:35:55;10.20;;;2.60;;
67348;SDS011;54234;50.320;3.474;2023-03-23T12:44:06;11.68;;;2.95;;
67348;SDS011;54234;50.320;3.474;2023-03-23T12:49:42;10.10;;;2.60;;
67348;SDS011;54234;50.320;3.474;2023-03-23T12:52:13;12.10;;;3.10;;
67348;SDS011;54234;50.320;3.474;2023-03-23T12:54:44;11.43;;;2.92;;
67348;SDS011;54234;50.320;3.474;2023-03-23T12:57:34;11.90;;;2.95;;
67348;SDS011;54234;50.320;3.474;2023-03-23T13:02:52;11.17;;;2.87;;
67348;SDS011;54234;50.320;3.474;2023-03-23T13:08:08;10.90;;;2.80;;
67348;SDS011;54234;50.320;3.474;2023-03-23T13:10:41;11.15;;;2.90;;
67348;SDS011;54234;50.320;3.474;2023-03-23T13:13:14;10.18;;;2.70;;
67348;SDS011;54234;50.320;3.474;2023-03-23T13:21:18;10.70;;;2.77;;
67348;SDS011;54234;50.320;3.474;2023-03-23T13:23:48;10.70;;;2.70;;
67348;SDS011;54234;50.320;3.474;2023-03-23T13:26:17;8.70;;;2.40;;
67348;SDS011;54234;50.320;3.474;2023-03-23T13:31:25;9.88;;;2.65;;
67348;SDS011;54234;50.320;3.474;2023-03-23T13:34:01;9.43;;;2.50;;
67348;SDS011;54234;50.320;3.474;2023-03-23T13:36:41;8.48;;;2.38;;
67348;SDS011;54234;50.320;3.474;2023-03-23T13:39:21;10.68;;;2.88;;
67348;SDS011;54234;50.320;3.474;2023-03-23T13:50:35;9.52;;;2.65;;
67348;SDS011;54234;50.320;3.474;2023-03-23T13:57:56;10.52;;;2.75;;
67348;SDS011;54234;50.320;3.474;2023-03-23T14:00:36;11.23;;;2.90;;
67348;SDS011;54234;50.320;3.474;2023-03-23T14:05:45;3.37;;;1.17;;
67348;SDS011;54234;50.320;3.474;2023-03-23T14:08:12;9.40;;;2.55;;
67348;SDS011;54234;50.320;3.474;2023-03-23T14:10:44;12.27;;;3.17;;
67348;SDS011;54234;50.320;3.474;2023-03-23T14:21:37;8.85;;;2.42;;
67348;SDS011;54234;50.320;3.474;2023-03-23T14:24:27;10.18;;;2.72;;
67348;SDS011;54234;50.320;3.474;2023-03-23T14:27:01;10.10;;;2.70;;
67348;SDS011;54234;50.320;3.474;2023-03-23T14:29:37;9.27;;;2.42;;
67348;SDS011;54234;50.320;3.474;2023-03-23T14:32:05;6.50;;;1.90;;
67348;SDS011;54234;50.320;3.474;2023-03-23T14:34:32;9.98;;;2.60;;
67348;SDS011;54234;50.320;3.474;2023-03-23T14:36:58;10.38;;;2.78;;
67348;SDS011;54234;50.320;3.474;2023-03-23T14:39:28;9.35;;;2.42;;
67348;SDS011;54234;50.320;3.474;2023-03-23T14:41:55;10.40;;;2.70;;
67348;SDS011;54234;50.320;3.474;2023-03-23T14:44:30;7.82;;;2.10;;
67348;SDS011;54234;50.320;3.474;2023-03-23T14:46:58;8.98;;;2.42;;
67348;SDS011;54234;50.320;3.474;2023-03-23T14:49:31;8.88;;;2.40;;
67348;SDS011;54234;50.320;3.474;2023-03-23T14:52:02;9.55;;;2.50;;
67348;SDS011;54234;50.320;3.474;2023-03-23T14:54:33;10.33;;;2.63;;
67348;SDS011;54234;50.320;3.474;2023-03-23T14:57:02;10.43;;;2.60;;
67348;SDS011;54234;50.320;3.474;2023-03-23T14:59:35;7.95;;;2.13;;
67348;SDS011;54234;50.320;3.474;2023-03-23T15:02:00;9.87;;;2.57;;
67348;SDS011;54234;50.320;3.474;2023-03-23T15:04:26;9.07;;;2.40;;
67348;SDS011;54234;50.320;3.474;2023-03-23T15:06:58;10.45;;;2.70;;
67348;SDS011;54234;50.320;3.474;2023-03-23T15:09:25;9.60;;;2.50;;
67348;SDS011;54234;50.320;3.474;2023-03-23T15:11:52;4.77;;;1.40;;
67348;SDS011;54234;50.320;3.474;2023-03-23T15:14:29;9.73;;;2.60;;
67348;SDS011;54234;50.320;3.474;2023-03-23T15:16:58;12.30;;;3.15;;
67348;SDS011;54234;50.320;3.474;2023-03-23T15:19:42;11.93;;;2.93;;
67348;SDS011;54234;50.320;3.474;2023-03-23T15:27:32;8.40;;;2.13;;
67348;SDS011;54234;50.320;3.474;2023-03-23T15:30:00;9.75;;;2.50;;
67348;SDS011;54234;50.320;3.474;2023-03-23T15:32:41;9.10;;;2.40;;
67348;SDS011;54234;50.320;3.474;2023-03-23T15:35:13;14.18;;;3.72;;
67348;SDS011;54234;50.320;3.474;2023-03-23T15:37:44;8.87;;;2.47;;
67348;SDS011;54234;50.320;3.474;2023-03-23T15:40:35;5.97;;;1.70;;
67348;SDS011;54234;50.320;3.474;2023-03-23T15:45:32;10.93;;;2.80;;
67348;SDS011;54234;50.320;3.474;2023-03-23T15:48:04;7.83;;;2.20;;
67348;SDS011;54234;50.320;3.474;2023-03-23T15:50:35;9.05;;;2.50;;
67348;SDS011;54234;50.320;3.474;2023-03-23T15:53:01;8.97;;;2.50;;
67348;SDS011;54234;50.320;3.474;2023-03-23T15:55:51;11.77;;;3.22;;
67348;SDS011;54234;50.320;3.474;2023-03-23T15:58:17;12.00;;;3.20;;
67348;SDS011;54234;50.320;3.474;2023-03-23T16:00:42;11.90;;;3.17;;
67348;SDS011;54234;50.320;3.474;2023-03-23T16:03:11;9.77;;;2.67;;
67348;SDS011;54234;50.320;3.474;2023-03-23T16:05:39;12.40;;;3.30;;
67348;SDS011;54234;50.320;3.474;2023-03-23T16:08:04;10.73;;;2.90;;
67348;SDS011;54234;50.320;3.474;2023-03-23T16:10:32;4.85;;;1.52;;
67348;SDS011;54234;50.320;3.474;2023-03-23T16:12:58;9.65;;;2.70;;
67348;SDS011;54234;50.320;3.474;2023-03-23T16:15:23;12.07;;;3.20;;
67348;SDS011;54234;50.320;3.474;2023-03-23T16:17:48;9.13;;;2.50;;
67348;SDS011;54234;50.320;3.474;2023-03-23T16:20:18;10.10;;;2.70;;
67348;SDS011;54234;50.320;3.474;2023-03-23T16:22:46;6.88;;;1.92;;
67348;SDS011;54234;50.320;3.474;2023-03-23T16:25:12;11.50;;;3.07;;
67348;SDS011;54234;50.320;3.474;2023-03-23T16:27:38;12.45;;;3.20;;
67348;SDS011;54234;50.320;3.474;2023-03-23T16:32:41;13.50;;;3.38;;
67348;SDS011;54234;50.320;3.474;2023-03-23T16:35:06;11.88;;;3.40;;
67348;SDS011;54234;50.320;3.474;2023-03-23T16:37:32;4.07;;;1.35;;
67348;SDS011;54234;50.320;3.474;2023-03-23T16:39:58;7.93;;;2.33;;
67348;SDS011;54234;50.320;3.474;2023-03-23T16:42:24;7.10;;;2.17;;
67348;SDS011;54234;50.320;3.474;2023-03-23T16:44:49;10.50;;;2.97;;
67348;SDS011;54234;50.320;3.474;2023-03-23T16:47:15;10.20;;;2.80;;
67348;SDS011;54234;50.320;3.474;2023-03-23T16:49:42;10.02;;;2.83;;
67348;SDS011;54234;50.320;3.474;2023-03-23T16:52:08;9.85;;;2.70;;
67348;SDS011;54234;50.320;3.474;2023-03-23T16:54:33;11.05;;;3.13;;
67348;SDS011;54234;50.320;3.474;2023-03-23T16:56:59;8.60;;;2.47;;